Time;durP1;ratioP1;P1;durP2;ratioP2;P2;SDS_P1;SDS_P2;PMS_P1;PMS_P2;Temp;Humidity;BMP_temperature;BMP_pressure;BME280_temperature;BME280_humidity;BME280_pressure;Samples;Min_cycle;Max_cycle;Signal;HPM_P1;HPM_P2
2022/10/07 00:01:17;;;;;;;5.30;2.70;;;10.70;71.20;;;;;;9184137;19;20056;-60
2022/10/07 00:04:23;;;;;;;11.82;2.50;;;10.70;71.30;;;;;;9183206;19;20010;-61
2022/10/07 00:07:26;;;;;;;12.70;2.55;;;10.70;71.30;;;;;;9181927;19;20487;-61
2022/10/07 00:10:30;;;;;;;9.23;2.53;;;10.60;71.20;;;;;;9181026;19;20022;-60
2022/10/07 00:13:35;;;;;;;11.63;2.63;;;10.60;71.30;;;;;;9183275;19;20021;-60
2022/10/07 00:16:40;;;;;;;8.95;2.17;;;10.60;71.30;;;;;;9182960;19;20015;-59
2022/10/07 00:19:46;;;;;;;4.63;2.28;;;10.60;71.30;;;;;;9183215;19;20022;-60
2022/10/07 00:22:52;;;;;;;12.98;2.80;;;10.60;71.40;;;;;;9178696;19;20013;-60
2022/10/07 00:26:00;;;;;;;27.13;3.53;;;10.60;71.40;;;;;;9181394;19;20495;-60
2022/10/07 00:29:04;;;;;;;8.05;2.25;;;10.60;71.50;;;;;;9183271;19;20023;-60
2022/10/07 00:32:08;;;;;;;7.60;2.65;;;10.50;71.50;;;;;;9182673;19;20010;-60
2022/10/07 00:35:14;;;;;;;7.03;3.05;;;10.50;71.50;;;;;;9183273;19;20483;-60
2022/10/07 00:38:18;;;;;;;10.25;3.08;;;10.50;71.60;;;;;;9181912;19;20018;-60
2022/10/07 00:41:24;;;;;;;8.38;2.75;;;10.50;71.60;;;;;;9180587;19;20090;-60
2022/10/07 00:44:40;;;;;;;8.20;2.13;;;10.50;71.60;;;;;;9180158;19;20021;-61
2022/10/07 00:47:47;;;;;;;8.70;2.47;;;10.50;71.70;;;;;;9180278;19;20014;-60
2022/10/07 00:50:55;;;;;;;8.75;2.20;;;10.50;71.70;;;;;;9181045;19;20464;-60
2022/10/07 00:54:01;;;;;;;9.52;3.15;;;10.50;71.80;;;;;;9182612;19;20096;-61
2022/10/07 00:57:05;;;;;;;11.90;2.90;;;10.50;71.80;;;;;;9181941;19;20015;-63
2022/10/07 01:00:10;;;;;;;;;;;10.50;71.80;;;;;;9182823;19;20018;-60
2022/10/07 01:03:14;;;;;;;10.30;3.80;;;10.50;71.80;;;;;;9180228;19;20336;-61
2022/10/07 01:06:19;;;;;;;20.55;3.90;;;10.50;71.70;;;;;;9179090;19;20010;-60
2022/10/07 01:09:23;;;;;;;8.38;2.70;;;10.40;71.80;;;;;;9178752;19;20051;-61
2022/10/07 01:12:39;;;;;;;11.45;3.08;;;10.40;71.80;;;;;;9181868;19;20029;-61
2022/10/07 01:15:51;;;;;;;9.05;2.55;;;10.40;71.90;;;;;;9181908;19;20017;-60
2022/10/07 01:19:02;;;;;;;13.23;2.47;;;10.40;72.00;;;;;;9180887;19;20019;-60
2022/10/07 01:22:20;;;;;;;11.00;2.90;;;10.40;72.00;;;;;;9181188;19;20017;-60
2022/10/07 01:25:33;;;;;;;19.75;3.30;;;10.40;72.10;;;;;;9174929;19;20021;-62
2022/10/07 01:28:42;;;;;;;19.77;3.33;;;10.40;72.10;;;;;;9178301;19;20011;-62
2022/10/07 01:31:50;;;;;;;14.00;2.88;;;10.40;72.10;;;;;;9180127;19;20018;-61
2022/10/07 01:34:56;;;;;;;23.08;3.65;;;10.40;72.10;;;;;;9178558;19;20022;-61
2022/10/07 01:38:05;;;;;;;14.15;2.83;;;10.40;72.20;;;;;;9180614;19;20014;-62
2022/10/07 01:41:15;;;;;;;11.07;2.92;;;10.40;72.20;;;;;;9177913;19;20018;-60
2022/10/07 01:44:21;;;;;;;11.40;2.42;;;10.40;72.30;;;;;;9177780;19;20018;-62
2022/10/07 01:47:27;;;;;;;8.18;2.58;;;10.40;72.30;;;;;;9174464;19;20029;-61
2022/10/07 01:50:32;;;;;;;11.13;2.83;;;10.40;72.30;;;;;;9178712;19;20018;-60
2022/10/07 01:53:48;;;;;;;10.65;2.63;;;10.40;72.40;;;;;;9176873;19;20006;-62
2022/10/07 01:57:02;;;;;;;14.55;3.03;;;10.40;72.50;;;;;;9177808;19;20018;-61
2022/10/07 02:00:13;;;;;;;13.68;3.60;;;10.40;72.50;;;;;;9175356;19;20030;-60
2022/10/07 02:03:38;;;;;;;12.93;2.80;;;10.40;72.50;;;;;;9177648;19;20023;-60
2022/10/07 02:06:49;;;;;;;8.57;2.45;;;10.40;72.60;;;;;;9174818;19;20011;-60
2022/10/07 02:09:59;;;;;;;10.85;2.97;;;10.40;72.60;;;;;;9174709;19;20023;-59
2022/10/07 02:13:11;;;;;;;14.85;2.45;;;10.40;72.60;;;;;;9179656;19;20404;-61
2022/10/07 02:16:22;;;;;;;17.40;2.85;;;10.40;72.70;;;;;;9177354;19;20025;-60
2022/10/07 02:19:29;;;;;;;15.95;2.85;;;10.40;72.70;;;;;;9177869;19;20068;-61
2022/10/07 02:22:35;;;;;;;9.32;2.47;;;10.40;72.70;;;;;;9176301;19;20678;-62
2022/10/07 02:25:45;;;;;;;10.38;2.35;;;10.40;72.70;;;;;;9177102;19;20007;-60
2022/10/07 02:28:53;;;;;;;13.02;2.60;;;10.40;72.80;;;;;;9177072;19;20018;-61
2022/10/07 02:32:02;;;;;;;7.47;2.55;;;10.40;72.80;;;;;;9175725;19;20081;-60
2022/10/07 02:35:13;;;;;;;18.30;2.75;;;10.40;72.90;;;;;;9178084;19;20017;-60
2022/10/07 02:38:18;;;;;;;11.40;3.10;;;10.40;72.90;;;;;;9178469;19;20015;-59
2022/10/07 02:41:32;;;;;;;11.18;2.00;;;10.40;72.90;;;;;;9176627;19;20026;-60
2022/10/07 02:44:49;;;;;;;13.98;3.20;;;10.40;73.00;;;;;;9175632;19;20751;-60
2022/10/07 02:48:00;;;;;;;16.40;3.75;;;10.40;73.00;;;;;;9177356;19;20014;-59
2022/10/07 02:51:09;;;;;;;17.38;2.85;;;10.40;73.10;;;;;;9175512;19;20014;-61
2022/10/07 02:54:13;;;;;;;15.43;3.03;;;10.40;73.10;;;;;;9178007;19;20389;-60
2022/10/07 02:57:20;;;;;;;9.70;3.50;;;10.40;73.10;;;;;;9174705;19;20035;-61
2022/10/07 03:00:24;;;;;;;18.83;3.40;;;10.40;73.20;;;;;;9175928;19;20015;-60
2022/10/07 03:03:31;;;;;;;14.20;2.67;;;10.40;73.80;;;;;;9176083;19;20015;-59
2022/10/07 03:06:40;;;;;;;14.25;3.05;;;10.40;73.30;;;;;;9172891;19;20010;-61
2022/10/07 03:09:44;;;;;;;27.90;3.50;;;10.40;73.30;;;;;;9172245;19;20141;-60
2022/10/07 03:12:49;;;;;;;13.85;2.65;;;10.40;73.30;;;;;;9181132;19;20490;-60
2022/10/07 03:15:53;;;;;;;;;;;10.40;73.30;;;;;;9184230;19;20037;-60
2022/10/07 03:19:03;;;;;;;17.88;4.00;;;10.40;73.30;;;;;;9183198;19;20352;-60
2022/10/07 03:22:10;;;;;;;8.13;2.85;;;10.30;73.10;;;;;;9184674;19;20019;-62
2022/10/07 03:25:16;;;;;;;12.93;2.78;;;10.30;73.20;;;;;;9178749;19;20340;-60
2022/10/07 03:28:21;;;;;;;15.68;2.80;;;10.30;73.30;;;;;;9183528;19;20010;-61
2022/10/07 03:31:26;;;;;;;16.92;3.30;;;10.30;73.40;;;;;;9184233;19;20881;-59
2022/10/07 03:34:34;;;;;;;13.63;2.95;;;10.30;73.40;;;;;;9183988;19;20017;-59
2022/10/07 03:37:38;;;;;;;10.82;2.70;;;10.30;73.50;;;;;;9182851;19;20511;-60
2022/10/07 03:40:45;;;;;;;19.75;3.67;;;10.30;73.60;;;;;;9181381;19;20011;-60
2022/10/07 03:43:49;;;;;;;18.35;3.45;;;10.30;73.60;;;;;;9184478;19;20080;-59
2022/10/07 03:46:57;;;;;;;13.57;3.50;;;10.30;73.60;;;;;;9180386;19;20011;-62
2022/10/07 03:50:05;;;;;;;6.45;3.00;;;10.30;73.70;;;;;;9182164;19;20014;-61
2022/10/07 03:53:09;;;;;;;18.38;3.05;;;10.30;73.70;;;;;;9181631;19;20019;-60
2022/10/07 03:56:13;;;;;;;12.95;2.80;;;10.30;73.70;;;;;;9182565;19;20111;-60
2022/10/07 03:59:19;;;;;;;9.57;3.25;;;10.30;73.70;;;;;;9181969;19;20022;-60
2022/10/07 04:02:24;;;;;;;17.98;3.22;;;10.30;73.80;;;;;;9183041;19;20471;-62
2022/10/07 04:05:30;;;;;;;17.52;3.40;;;10.30;73.80;;;;;;9182482;19;20526;-62
2022/10/07 04:08:34;;;;;;;18.80;3.78;;;10.30;73.90;;;;;;9180714;19;20051;-61
2022/10/07 04:11:40;;;;;;;17.70;3.67;;;10.30;73.90;;;;;;9183543;19;20471;-60
2022/10/07 04:14:45;;;;;;;11.88;3.05;;;10.30;73.90;;;;;;9181609;19;20002;-62
2022/10/07 04:17:50;;;;;;;19.00;3.90;;;10.30;74.00;;;;;;9183376;19;20106;-62
2022/10/07 04:21:00;;;;;;;15.52;3.25;;;10.30;74.00;;;;;;9180337;19;20015;-60
2022/10/07 04:24:05;;;;;;;8.68;2.90;;;10.30;74.10;;;;;;9174007;19;20070;-59
2022/10/07 04:27:09;;;;;;;11.77;2.72;;;10.30;74.00;;;;;;9178614;19;20029;-60
2022/10/07 04:30:13;;;;;;;13.30;3.38;;;10.30;74.00;;;;;;9182710;19;20019;-60
2022/10/07 04:33:18;;;;;;;12.60;3.35;;;10.30;74.10;;;;;;9180713;19;20903;-60
2022/10/07 04:36:24;;;;;;;21.50;3.88;;;10.30;74.10;;;;;;9180923;19;20018;-62
2022/10/07 04:39:40;;;;;;;12.85;3.35;;;10.30;74.20;;;;;;9180336;19;20011;-60
2022/10/07 04:43:22;;;;;;;14.20;3.55;;;10.30;74.20;;;;;;9180487;19;20041;-60
2022/10/07 04:46:31;;;;;;;10.90;3.20;;;10.30;74.10;;;;;;9178581;19;20014;-60
2022/10/07 04:49:45;;;;;;;17.02;3.33;;;10.30;74.20;;;;;;9178288;19;20015;-64
2022/10/07 04:52:51;;;;;;;16.75;3.85;;;10.30;74.20;;;;;;9180503;19;20385;-59
2022/10/07 04:55:55;;;;;;;12.18;3.20;;;10.30;74.20;;;;;;9181131;19;20018;-61
2022/10/07 04:59:01;;;;;;;20.08;3.35;;;10.20;74.20;;;;;;9179472;19;20082;-59
2022/10/07 05:02:05;;;;;;;16.92;3.25;;;10.30;74.30;;;;;;9180657;19;20499;-60
2022/10/07 05:05:11;;;;;;;14.77;2.83;;;10.20;74.30;;;;;;9179785;19;20041;-60
2022/10/07 05:08:19;;;;;;;15.65;3.75;;;10.30;74.40;;;;;;9180897;19;20011;-60
2022/10/07 05:11:24;;;;;;;11.45;3.13;;;10.20;74.40;;;;;;9179417;19;20083;-60
2022/10/07 05:14:34;;;;;;;12.85;3.13;;;10.30;74.40;;;;;;9181038;19;20015;-62
2022/10/07 05:17:39;;;;;;;16.55;3.65;;;10.20;74.40;;;;;;9180259;19;20022;-64
2022/10/07 05:20:45;;;;;;;20.63;4.32;;;10.20;74.40;;;;;;9178967;19;20025;-63
2022/10/07 05:23:51;;;;;;;14.57;3.53;;;10.20;74.50;;;;;;9174587;19;20033;-61
2022/10/07 05:27:00;;;;;;;12.30;3.90;;;10.20;74.50;;;;;;9176480;19;20018;-61
2022/10/07 05:30:04;;;;;;;18.65;4.68;;;10.20;74.60;;;;;;9179588;19;20025;-60
2022/10/07 05:33:10;;;;;;;15.48;4.30;;;10.20;74.60;;;;;;9178597;19;20010;-60
2022/10/07 05:36:16;;;;;;;15.55;5.00;;;10.20;74.70;;;;;;9177450;19;20047;-59
2022/10/07 05:39:21;;;;;;;;;;;10.20;74.70;;;;;;9180152;19;20470;-59
2022/10/07 05:42:32;;;;;;;23.45;4.63;;;10.10;74.60;;;;;;9178263;19;20386;-62
2022/10/07 05:45:36;;;;;;;13.82;4.63;;;10.20;74.50;;;;;;9177489;19;20010;-61
2022/10/07 05:48:41;;;;;;;20.15;4.65;;;10.20;74.60;;;;;;9178510;19;20013;-61
2022/10/07 05:51:45;;;;;;;19.45;4.40;;;10.10;74.70;;;;;;9178180;19;20043;-60
2022/10/07 05:54:51;;;;;;;;;;;10.20;74.80;;;;;;9180193;19;20021;-60
2022/10/07 05:57:55;;;;;;;13.35;3.83;;;10.10;74.70;;;;;;9178110;19;19938;-61
2022/10/07 06:01:01;;;;;;;;;;;10.10;74.60;;;;;;9178199;19;20051;-64
2022/10/07 06:04:12;;;;;;;21.60;3.67;;;10.10;74.70;;;;;;9177842;19;20280;-61
2022/10/07 06:07:19;;;;;;;21.48;3.97;;;10.10;74.50;;;;;;9174097;19;20402;-61
2022/10/07 06:13:48;;;;;;;11.23;3.30;;;10.10;74.80;;;;;;9178178;19;20011;-63
2022/10/07 06:16:52;;;;;;;16.23;4.25;;;10.10;74.90;;;;;;9176916;19;20097;-61
2022/10/07 06:19:56;;;;;;;;;;;10.10;74.90;;;;;;9178365;19;20011;-59
2022/10/07 06:23:00;;;;;;;18.33;3.42;;;10.10;74.90;;;;;;9172179;19;19942;-61
2022/10/07 06:26:08;;;;;;;16.90;3.58;;;10.10;74.80;;;;;;9175699;19;20471;-60
2022/10/07 06:29:11;;;;;;;14.80;3.38;;;10.20;75.00;;;;;;9177213;19;20040;-61
2022/10/07 06:32:15;;;;;;;18.48;3.28;;;10.20;75.00;;;;;;9176559;19;20007;-61
2022/10/07 06:35:20;;;;;;;24.60;4.13;;;10.10;75.00;;;;;;9176588;19;20007;-60
2022/10/07 06:38:26;;;;;;;15.77;3.25;;;10.10;75.10;;;;;;9176460;19;20033;-61
2022/10/07 06:41:32;;;;;;;14.73;4.30;;;10.20;75.20;;;;;;9176476;19;20022;-61
2022/10/07 06:44:43;;;;;;;15.80;3.53;;;10.10;75.20;;;;;;9176763;19;20371;-65
2022/10/07 06:47:52;;;;;;;16.10;3.33;;;10.20;75.20;;;;;;9180990;19;20045;-62
2022/10/07 06:50:59;;;;;;;22.42;4.65;;;10.20;75.20;;;;;;9184185;19;20026;-60
2022/10/07 06:54:06;;;;;;;16.98;4.38;;;10.20;75.30;;;;;;9183576;19;20121;-61
2022/10/07 06:57:12;;;;;;;19.08;3.63;;;10.20;75.30;;;;;;9184283;19;20011;-61
2022/10/07 07:00:36;;;;;;;19.08;3.28;;;10.30;75.50;;;;;;9186696;19;20053;-61
2022/10/07 07:03:41;;;;;;;22.13;3.40;;;10.30;75.50;;;;;;9183442;19;20018;-60
2022/10/07 07:06:45;;;;;;;13.90;3.00;;;10.30;75.50;;;;;;9179085;19;20547;-60
2022/10/07 07:09:49;;;;;;;15.63;3.45;;;10.30;75.60;;;;;;9182203;19;20019;-61
2022/10/07 07:12:57;;;;;;;16.55;3.15;;;10.30;75.60;;;;;;9171181;19;20665;-62
2022/10/07 07:16:01;;;;;;;14.77;3.42;;;10.40;75.70;;;;;;9175587;19;20489;-60
2022/10/07 07:19:13;;;;;;;21.52;3.97;;;10.40;75.70;;;;;;9178937;19;20015;-60
2022/10/07 07:22:18;;;;;;;17.00;4.32;;;10.40;75.70;;;;;;9182384;19;20104;-60
2022/10/07 07:25:22;;;;;;;13.40;3.78;;;10.50;75.80;;;;;;9171345;19;20023;-61
2022/10/07 07:28:30;;;;;;;24.38;4.75;;;10.50;75.90;;;;;;9184246;19;20746;-62
2022/10/07 07:31:36;;;;;;;15.63;4.45;;;10.60;76.00;;;;;;9178163;19;20018;-65
2022/10/07 07:34:41;;;;;;;16.08;4.20;;;10.70;76.10;;;;;;9176633;19;20023;-60
2022/10/07 07:37:47;;;;;;;13.30;3.42;;;10.70;76.00;;;;;;9178120;19;20015;-62
2022/10/07 07:40:52;;;;;;;18.25;3.60;;;10.80;76.10;;;;;;9162866;19;20024;-63
2022/10/07 07:44:01;;;;;;;37.92;5.40;;;10.90;76.20;;;;;;9163604;19;20015;-67
2022/10/07 07:47:05;;;;;;;17.17;4.32;;;11.00;76.30;;;;;;9165504;19;20597;-68
2022/10/07 07:50:10;;;;;;;17.02;4.07;;;11.10;76.30;;;;;;9171201;19;20011;-64
2022/10/07 07:53:14;;;;;;;22.17;3.15;;;11.30;76.30;;;;;;9173787;19;20010;-66
2022/10/07 07:56:18;;;;;;;15.70;3.25;;;11.40;76.20;;;;;;9168246;19;20114;-62
2022/10/07 07:59:25;;;;;;;13.48;4.72;;;11.50;76.20;;;;;;9162492;19;20018;-64
2022/10/07 08:02:31;;;;;;;14.75;3.33;;;11.60;76.30;;;;;;9164477;19;20023;-64
2022/10/07 08:05:35;;;;;;;;;;;11.80;76.30;;;;;;9168038;19;20531;-66
2022/10/07 08:08:41;;;;;;;6.88;2.22;;;11.90;76.20;;;;;;9156827;19;19914;-66
2022/10/07 08:11:47;;;;;;;21.27;3.33;;;12.00;76.00;;;;;;9157992;19;20456;-66
2022/10/07 08:14:54;;;;;;;27.05;4.75;;;12.20;76.00;;;;;;9158395;19;20047;-66
2022/10/07 08:17:59;;;;;;;14.60;3.83;;;12.30;76.00;;;;;;9157624;19;20021;-67
2022/10/07 08:21:03;;;;;;;;;;;12.40;76.00;;;;;;9169198;19;20015;-67
2022/10/07 08:24:09;;;;;;;12.85;3.20;;;12.60;75.90;;;;;;9163046;19;19974;-65
2022/10/07 08:27:14;;;;;;;14.25;3.35;;;12.70;75.80;;;;;;9165806;19;20574;-66
2022/10/07 08:30:20;;;;;;;18.35;3.05;;;12.80;75.80;;;;;;9167285;19;20035;-66
2022/10/07 08:33:25;;;;;;;19.27;3.03;;;12.90;75.80;;;;;;9166057;19;20018;-65
2022/10/07 08:36:31;;;;;;;17.92;3.55;;;13.10;75.80;;;;;;9167277;19;20644;-65
2022/10/07 08:39:35;;;;;;;24.73;3.10;;;13.30;75.80;;;;;;9166939;19;20354;-65
2022/10/07 08:42:42;;;;;;;18.52;2.90;;;13.40;75.70;;;;;;9170859;19;20018;-65
2022/10/07 08:45:48;;;;;;;20.25;3.25;;;13.50;75.60;;;;;;9170970;19;20019;-67
2022/10/07 08:48:57;;;;;;;14.65;3.22;;;13.60;75.60;;;;;;9166804;19;20085;-66
2022/10/07 08:52:04;;;;;;;8.27;2.45;;;13.80;75.50;;;;;;9173938;19;20208;-66
2022/10/07 08:55:18;;;;;;;16.48;2.80;;;14.00;75.40;;;;;;9166800;19;20021;-66
2022/10/07 08:58:49;;;;;;;22.70;4.78;;;14.10;75.40;;;;;;9169278;19;20876;-65
2022/10/07 09:02:17;;;;;;;20.67;3.45;;;14.30;75.40;;;;;;9174053;19;20018;-65
2022/10/07 09:05:26;;;;;;;16.73;2.85;;;14.40;75.20;;;;;;9165724;19;20018;-65
2022/10/07 09:08:36;;;;;;;18.98;3.08;;;14.60;75.10;;;;;;9156197;19;20026;-67
2022/10/07 09:11:43;;;;;;;15.48;3.03;;;14.70;75.00;;;;;;9162666;19;20018;-65
2022/10/07 09:14:51;;;;;;;18.85;3.83;;;14.90;74.90;;;;;;9170090;19;20093;-66
2022/10/07 09:18:02;;;;;;;15.80;3.58;;;15.00;74.80;;;;;;9178648;19;20104;-67
2022/10/07 09:21:15;;;;;;;21.52;3.28;;;15.20;74.70;;;;;;9179413;19;20059;-65
2022/10/07 09:24:23;;;;;;;15.75;3.17;;;15.30;74.50;;;;;;9169727;19;20363;-65
2022/10/07 09:27:28;;;;;;;14.02;3.95;;;15.50;74.50;;;;;;9172420;19;20048;-66
2022/10/07 09:30:32;;;;;;;15.65;3.28;;;15.60;74.40;;;;;;9173501;19;20023;-66
2022/10/07 09:33:42;;;;;;;13.52;3.67;;;15.70;74.30;;;;;;9173405;19;20056;-68
2022/10/07 09:37:15;;;;;;;22.17;3.80;;;15.80;74.20;;;;;;9173173;19;20019;-65
2022/10/07 09:40:31;;;;;;;12.05;2.60;;;16.00;74.00;;;;;;9177687;19;20018;-65
2022/10/07 09:43:35;;;;;;;13.07;2.65;;;16.10;73.90;;;;;;9179129;19;20056;-66
2022/10/07 09:46:47;;;;;;;23.98;2.65;;;16.30;73.90;;;;;;9175018;19;20044;-70
2022/10/07 09:49:55;;;;;;;14.63;2.50;;;16.40;73.70;;;;;;9176277;19;20018;-66
2022/10/07 09:52:59;;;;;;;18.77;2.90;;;16.60;73.50;;;;;;9178288;19;20058;-63
2022/10/07 09:56:03;;;;;;;12.18;2.60;;;16.70;73.40;;;;;;9175256;19;20471;-62
2022/10/07 09:59:19;;;;;;;17.10;2.97;;;16.90;73.30;;;;;;9173380;19;20546;-61
2022/10/07 10:02:26;;;;;;;15.80;3.28;;;17.00;73.00;;;;;;9168506;19;20014;-61
2022/10/07 10:05:34;;;;;;;10.70;2.13;;;17.20;73.00;;;;;;9171655;19;20018;-61
2022/10/07 10:08:39;;;;;;;13.30;2.47;;;17.40;72.90;;;;;;9170307;19;20019;-61
2022/10/07 10:11:43;;;;;;;12.82;2.90;;;17.50;72.60;;;;;;9178399;19;20513;-60
2022/10/07 10:14:49;;;;;;;14.90;3.05;;;17.70;72.50;;;;;;9168300;19;20356;-64
2022/10/07 10:17:55;;;;;;;13.93;2.17;;;17.80;72.30;;;;;;9168238;19;20382;-64
2022/10/07 10:21:24;;;;;;;10.05;2.40;;;18.00;72.10;;;;;;9171969;19;20045;-61
2022/10/07 10:27:56;;;;;;;21.60;2.25;;;18.30;71.70;;;;;;9174667;19;20019;-64
2022/10/07 10:31:07;;;;;;;16.90;2.05;;;18.50;71.50;;;;;;9178414;19;20059;-61
2022/10/07 10:34:25;;;;;;;20.90;3.03;;;18.70;71.30;;;;;;9179604;19;20026;-62
2022/10/07 10:37:44;;;;;;;22.30;3.22;;;18.80;71.10;;;;;;9181743;19;20022;-61
2022/10/07 10:40:56;;;;;;;26.75;3.30;;;19.00;70.80;;;;;;9182715;19;20093;-61
2022/10/07 10:44:18;;;;;;;14.85;2.15;;;19.20;70.70;;;;;;9179216;19;20021;-62
2022/10/07 10:47:32;;;;;;;11.27;2.20;;;19.30;70.40;;;;;;9178849;19;20078;-63
2022/10/07 10:50:45;;;;;;;13.63;2.00;;;19.50;70.20;;;;;;9171905;19;20018;-60
2022/10/07 10:53:59;;;;;;;13.63;2.55;;;19.60;70.10;;;;;;9165979;19;20015;-62
2022/10/07 10:57:08;;;;;;;11.48;2.58;;;19.70;69.80;;;;;;9169789;19;20059;-64
2022/10/07 11:00:15;;;;;;;10.93;2.00;;;19.80;69.70;;;;;;9173745;19;20019;-62
2022/10/07 11:03:38;;;;;;;12.48;2.63;;;19.80;69.50;;;;;;9177559;19;20049;-62
2022/10/07 11:06:45;;;;;;;15.07;2.20;;;19.90;69.30;;;;;;9176184;19;20375;-63
2022/10/07 11:09:55;;;;;;;10.38;1.80;;;20.00;69.20;;;;;;9169936;19;20042;-67
2022/10/07 11:13:01;;;;;;;10.55;2.15;;;20.10;69.00;;;;;;9177859;19;20010;-63
2022/10/07 11:16:10;;;;;;;12.60;2.20;;;20.10;68.90;;;;;;9177342;19;20011;-63
2022/10/07 11:19:20;;;;;;;10.85;2.25;;;20.20;68.70;;;;;;9171307;19;20868;-64
2022/10/07 11:22:33;;;;;;;15.55;2.33;;;20.30;68.60;;;;;;9169186;19;20018;-63
2022/10/07 11:25:44;;;;;;;16.65;2.88;;;20.40;68.30;;;;;;9164959;19;20025;-62
2022/10/07 11:28:49;;;;;;;23.83;3.47;;;20.40;68.10;;;;;;9168143;19;20491;-64
2022/10/07 11:32:01;;;;;;;14.50;2.35;;;20.40;68.10;;;;;;9174590;19;20680;-65
2022/10/07 11:35:22;;;;;;;16.17;2.72;;;20.40;67.90;;;;;;9176927;19;20057;-64
2022/10/07 11:38:30;;;;;;;12.68;1.75;;;20.40;67.90;;;;;;9176226;19;20014;-63
2022/10/07 11:41:42;;;;;;;17.40;2.70;;;20.40;67.90;;;;;;9176731;19;20496;-64
2022/10/07 11:44:54;;;;;;;9.65;2.60;;;20.40;67.80;;;;;;9171033;19;20010;-61
2022/10/07 11:48:01;;;;;;;7.30;1.90;;;20.40;67.70;;;;;;9176170;19;20154;-62
2022/10/07 11:51:09;;;;;;;16.55;2.35;;;20.40;67.70;;;;;;9175031;19;20035;-63
2022/10/07 11:54:16;;;;;;;10.23;2.10;;;20.40;67.60;;;;;;9175258;19;20019;-63
2022/10/07 11:57:26;;;;;;;11.90;2.17;;;20.40;67.60;;;;;;9175745;19;20014;-66
2022/10/07 12:00:32;;;;;;;15.02;2.50;;;20.40;67.40;;;;;;9144432;19;20086;-64
2022/10/07 12:03:47;;;;;;;15.43;2.35;;;20.50;67.40;;;;;;9150524;19;20861;-63
2022/10/07 12:07:21;;;;;;;16.58;2.50;;;20.50;67.10;;;;;;9172676;19;20021;-65
2022/10/07 12:10:32;;;;;;;3.30;1.10;;;20.50;67.10;;;;;;9171870;19;20480;-62
2022/10/07 12:13:44;;;;;;;18.02;2.45;;;20.60;67.30;;;;;;9158627;19;20420;-64
2022/10/07 12:16:55;;;;;;;8.45;1.60;;;20.60;67.00;;;;;;9181704;19;20097;-62
2022/10/07 12:20:29;;;;;;;15.75;2.30;;;20.60;66.90;;;;;;9171450;19;20078;-68
2022/10/07 12:24:10;;;;;;;10.97;1.87;;;20.70;66.70;;;;;;9173164;19;20010;-62
2022/10/07 12:27:17;;;;;;;13.90;2.90;;;20.80;66.50;;;;;;9175023;19;20094;-64
2022/10/07 12:30:41;;;;;;;15.73;2.25;;;20.80;66.60;;;;;;9176687;19;20031;-62
2022/10/07 12:33:57;;;;;;;6.65;1.73;;;20.80;66.10;;;;;;9181427;19;20014;-61
2022/10/07 12:37:30;;;;;;;15.30;2.45;;;20.80;66.10;;;;;;9170734;19;20075;-63
2022/10/07 12:40:36;;;;;;;10.55;1.92;;;20.80;65.90;;;;;;9178683;19;20019;-62
2022/10/07 12:43:50;;;;;;;14.73;2.92;;;20.80;66.10;;;;;;9167147;19;20031;-60
2022/10/07 12:46:57;;;;;;;;;;;20.80;65.90;;;;;;9171134;19;20675;-65
2022/10/07 12:50:07;;;;;;;13.45;1.80;;;20.80;66.30;;;;;;9168928;19;19955;-62
2022/10/07 12:53:13;;;;;;;19.65;3.45;;;20.80;66.30;;;;;;9173685;19;20010;-62
2022/10/07 12:56:22;;;;;;;12.20;2.00;;;20.80;66.10;;;;;;9174635;19;20426;-61
2022/10/07 12:59:48;;;;;;;13.02;1.90;;;20.70;65.80;;;;;;9173097;19;20136;-63
2022/10/07 13:03:36;;;;;;;13.25;2.78;;;20.60;65.40;;;;;;9165488;19;20026;-62
2022/10/07 13:07:19;;;;;;;12.27;2.10;;;20.50;65.40;;;;;;9205195;19;20555;-63
2022/10/07 13:10:42;;;;;;;13.55;2.33;;;20.40;65.40;;;;;;9207927;19;20495;-62
2022/10/07 13:13:53;;;;;;;13.25;2.10;;;20.40;65.60;;;;;;9214834;19;20029;-62
2022/10/07 13:17:02;;;;;;;10.43;1.88;;;20.30;65.70;;;;;;9213533;19;20122;-62
2022/10/07 13:20:14;;;;;;;10.00;1.90;;;20.20;65.60;;;;;;9213135;19;20074;-63
2022/10/07 13:23:21;;;;;;;11.25;1.83;;;20.10;65.60;;;;;;9206072;19;20026;-62
2022/10/07 13:26:30;;;;;;;13.20;1.80;;;20.10;65.50;;;;;;9206812;19;21317;-62
2022/10/07 13:29:34;;;;;;;6.70;1.73;;;20.00;65.60;;;;;;9216220;19;20513;-62
2022/10/07 13:32:38;;;;;;;;;;;19.90;65.60;;;;;;9213374;19;20679;-64
2022/10/07 13:35:41;;;;;;;10.75;1.88;;;19.90;65.70;;;;;;9216457;19;20255;-63
2022/10/07 13:38:49;;;;;;;14.07;2.05;;;19.80;65.70;;;;;;9215175;19;20018;-61
2022/10/07 13:41:55;;;;;;;9.50;1.80;;;19.80;65.50;;;;;;9215564;19;20029;-62
2022/10/07 13:45:03;;;;;;;7.88;1.70;;;19.70;65.40;;;;;;9213098;19;20663;-62
2022/10/07 13:48:07;;;;;;;11.27;2.10;;;19.70;65.40;;;;;;9215324;19;20018;-61
2022/10/07 13:51:19;;;;;;;9.40;2.05;;;19.60;65.50;;;;;;9214692;19;20010;-62
2022/10/07 13:54:27;;;;;;;11.60;2.75;;;19.60;65.30;;;;;;9213752;19;20054;-61
2022/10/07 13:57:34;;;;;;;5.03;1.60;;;19.50;65.30;;;;;;9208252;19;20018;-64
2022/10/07 14:00:43;;;;;;;8.02;1.60;;;19.50;65.30;;;;;;9206213;19;20011;-63
2022/10/07 14:04:18;;;;;;;10.60;1.50;;;19.50;65.20;;;;;;9213442;19;20089;-62
2022/10/07 14:07:23;;;;;;;9.30;2.05;;;19.50;65.10;;;;;;9210241;19;20112;-64
2022/10/07 14:10:30;;;;;;;8.00;1.73;;;19.50;65.40;;;;;;9204282;19;20096;-67
2022/10/07 14:13:36;;;;;;;10.57;1.73;;;19.40;65.10;;;;;;9213975;19;20039;-62
2022/10/07 14:16:40;;;;;;;9.13;2.35;;;19.40;65.10;;;;;;9198387;19;20015;-65
2022/10/07 14:19:44;;;;;;;11.82;2.15;;;19.40;65.10;;;;;;9175943;19;20019;-63
2022/10/07 14:22:49;;;;;;;;;;;19.40;65.00;;;;;;9175734;19;20022;-59
2022/10/07 14:25:55;;;;;;;;;;;19.40;65.20;;;;;;9179923;19;19918;-62
2022/10/07 14:29:19;;;;;;;8.93;1.95;;;19.40;65.30;;;;;;9177033;19;19928;-61
2022/10/07 14:35:39;;;;;;;14.68;2.10;;;19.40;65.20;;;;;;9176409;19;20333;-62
2022/10/07 14:38:45;;;;;;;8.80;1.70;;;19.30;65.20;;;;;;9182606;19;20467;-62
2022/10/07 14:41:51;;;;;;;12.32;2.65;;;19.30;65.10;;;;;;9183953;19;20181;-61
2022/10/07 14:44:56;;;;;;;9.85;2.20;;;19.30;65.00;;;;;;9175307;19;20404;-62
2022/10/07 14:48:00;;;;;;;9.00;2.08;;;19.30;65.00;;;;;;9174723;19;20033;-62
2022/10/07 14:51:03;;;;;;;13.25;1.95;;;19.30;64.90;;;;;;9175901;19;20086;-63
2022/10/07 14:54:08;;;;;;;9.38;2.40;;;19.20;64.80;;;;;;9175868;19;20059;-61
2022/10/07 14:57:14;;;;;;;9.32;1.63;;;19.20;64.90;;;;;;9181762;19;20021;-62
2022/10/07 15:00:20;;;;;;;9.43;1.63;;;19.20;64.80;;;;;;9182203;19;20022;-63
2022/10/07 15:03:24;;;;;;;11.38;1.98;;;19.10;64.70;;;;;;9179658;19;20086;-61
2022/10/07 15:06:28;;;;;;;8.73;1.95;;;19.10;64.80;;;;;;9179992;19;20037;-65
2022/10/07 15:09:32;;;;;;;10.65;2.78;;;19.10;64.70;;;;;;9179343;19;20078;-62
2022/10/07 15:12:38;;;;;;;13.48;1.83;;;19.10;64.70;;;;;;9182420;19;20018;-63
2022/10/07 15:15:43;;;;;;;8.90;1.80;;;19.00;64.70;;;;;;9179922;19;20018;-63
2022/10/07 15:18:47;;;;;;;14.38;2.33;;;19.00;64.60;;;;;;9182773;19;20014;-62
2022/10/07 15:21:56;;;;;;;10.35;2.42;;;19.00;64.70;;;;;;9180911;19;20014;-61
2022/10/07 15:25:02;;;;;;;12.70;1.88;;;19.00;64.60;;;;;;9175691;19;20087;-62
2022/10/07 15:28:07;;;;;;;8.07;1.35;;;18.90;64.50;;;;;;9179893;19;20077;-63
2022/10/07 15:31:11;;;;;;;11.45;2.95;;;18.90;64.50;;;;;;9183109;19;20015;-62
2022/10/07 15:34:15;;;;;;;13.65;2.00;;;18.90;64.50;;;;;;9182070;19;20018;-63
2022/10/07 15:37:18;;;;;;;13.23;2.05;;;18.80;64.50;;;;;;9182018;19;20014;-64
2022/10/07 15:40:22;;;;;;;8.73;1.77;;;18.80;64.50;;;;;;9181907;19;20355;-62
2022/10/07 15:43:32;;;;;;;6.60;1.65;;;18.70;64.50;;;;;;9181485;19;20025;-61
2022/10/07 15:46:35;;;;;;;8.82;1.55;;;18.60;64.40;;;;;;9175427;19;20516;-62
2022/10/07 15:49:39;;;;;;;10.50;1.75;;;18.60;64.40;;;;;;9181770;19;20011;-61
2022/10/07 15:52:43;;;;;;;11.57;1.77;;;18.60;64.50;;;;;;9179721;19;20027;-61
2022/10/07 15:55:53;;;;;;;9.90;2.50;;;18.50;64.40;;;;;;9179278;19;20021;-62
2022/10/07 15:58:59;;;;;;;13.70;1.90;;;18.40;64.30;;;;;;9180233;19;20027;-62
2022/10/07 16:02:03;;;;;;;11.27;2.83;;;18.40;64.40;;;;;;9180193;19;20033;-62
2022/10/07 16:05:08;;;;;;;12.40;2.47;;;18.30;64.30;;;;;;9177886;19;20082;-65
2022/10/07 16:08:12;;;;;;;7.05;1.85;;;18.30;64.50;;;;;;9180529;19;20116;-61
2022/10/07 16:11:15;;;;;;;11.65;1.90;;;18.20;64.40;;;;;;9181890;19;20010;-61
2022/10/07 16:14:21;;;;;;;9.98;1.75;;;18.20;64.40;;;;;;9180583;19;20033;-62
2022/10/07 16:17:25;;;;;;;9.15;1.88;;;18.10;64.40;;;;;;9180593;19;20097;-61
2022/10/07 16:20:29;;;;;;;8.55;2.10;;;18.10;64.50;;;;;;9179978;19;20024;-62
2022/10/07 16:23:34;;;;;;;14.50;1.80;;;18.10;64.60;;;;;;9175376;19;20011;-62
2022/10/07 16:26:38;;;;;;;8.18;1.70;;;18.00;64.50;;;;;;9176865;19;20007;-60